Terminal Aerodrome Forecast
Issued by NWS Twin Cities, MN

Home | Current Version | Previous Version | Text Only | Print | Product List | Glossary Off
Versions: 1 2 3 4 5 6 7 8 9 10 11 12 13 14 15 16 17

000
FTUS43 KMPX 182100 AAA
TAFSTC
TAF AMD
KSTC 182100Z 1821/1918 14003KT P6SM OVC018
     FM190000 17006KT P6SM SCT020 BKN050
     FM191200 17007KT P6SM BKN015=

USA.gov is the U.S. government's official web portal to all federal, state and local government web resources and services.